Pagina principale
METAR-TAF:

METAR-TAF

Aeroporti :

Marshfield, Massachusetts, Stati Uniti

latitudine: 42-05-54N, longitudine: 070-40-20W, altezza: 3 m

Osservazione

Il bollettino è stato emesso 36 minuti fa, alle 21:35 UTC
Vento 4 kt da est
Temperature 8°C
Umidità 93%
Pressione 1013 hPa
Visibilità: 16.1 km
Poco nuvoloso ad un'altezza di 700 ft
Cielo coperto ad un'altezza di 1200 ft

METAR: KGHG 232135Z AUTO 09004KT 10SM FEW007 OVC012 08/07 A2992 RMK AO2

Ora: 18:11 (22:11 UTC)


TAF: mancante

Osservazioni e previsioni meteorologiche di più di 4000 aeroporti (messaggi METAR e TAF).

Le stazioni disponibili sono rappresentate dai dischi gialli e rossi sulla carta.

Puntare il mouse per vedere il nome della stazione.

Clicca sopra per visualizzare le osservazioni e previsioni meteorologiche.

Per cambiare la mappa : fare clic sui pulsanti verdi con una croce nera per ingrandire, il pulsante verde con un trattino per diminuire, o sulla freccia verde per le mappe adiacenti.


METAR-TAF: